createdAt,value
2019-01-30T00:00:07.535Z,-1.82
2019-01-30T00:01:08.219Z,-1.84
2019-01-30T00:02:09.216Z,-1.76
2019-01-30T00:03:08.895Z,-1.81
2019-01-30T00:04:09.433Z,-1.79
2019-01-30T00:05:10.766Z,-1.82
2019-01-30T00:06:11.170Z,-1.71
2019-01-30T00:07:12.133Z,-1.72
2019-01-30T00:08:13.263Z,-1.66
2019-01-30T00:09:14.285Z,-1.64
2019-01-30T00:10:14.972Z,-1.53
2019-01-30T00:11:15.657Z,-1.6
2019-01-30T00:12:16.784Z,-1.6
2019-01-30T00:13:17.549Z,-1.6
2019-01-30T00:14:18.373Z,-1.54
2019-01-30T00:15:19.799Z,-1.69
2019-01-30T00:16:19.933Z,-1.68
2019-01-30T00:17:20.615Z,-1.58
2019-01-30T00:18:21.741Z,-1.53
2019-01-30T00:19:23.146Z,-1.48
2019-01-30T00:20:23.830Z,-1.56
2019-01-30T00:21:24.595Z,-1.56
2019-01-30T00:22:25.278Z,-1.54
2019-01-30T00:23:25.494Z,-1.53
2019-01-30T00:24:26.038Z,-1.48
2019-01-30T00:25:26.443Z,-1.43
2019-01-30T00:26:27.126Z,-1.45
2019-01-30T00:27:28.254Z,-1.43
2019-01-30T00:28:29.391Z,-1.45
2019-01-30T00:29:30.352Z,-1.45
2019-01-30T00:30:31.033Z,-1.51
2019-01-30T00:31:32.161Z,-1.53
2019-01-30T00:32:33.397Z,-1.43
2019-01-30T00:33:34.082Z,-1.43
2019-01-30T00:34:34.890Z,-1.39
2019-01-30T00:35:36.295Z,-1.35
2019-01-30T00:36:36.703Z,-1.38
2019-01-30T00:37:38.109Z,-1.35
2019-01-30T00:38:38.526Z,-1.33
2019-01-30T00:39:38.937Z,-1.27
2019-01-30T00:40:39.619Z,-1.3
2019-01-30T00:41:40.025Z,-1.32
2019-01-30T00:42:40.808Z,-1.24
2019-01-30T00:43:40.935Z,-1.27
2019-01-30T00:44:41.772Z,-1.24
2019-01-30T00:45:42.776Z,-1.27
2019-01-30T00:46:43.179Z,-1.25
2019-01-30T00:47:43.629Z,-1.18
2019-01-30T00:48:44.310Z,-1.12
2019-01-30T00:49:44.435Z,-1.19
2019-01-30T00:50:45.562Z,-1.15
2019-01-30T00:51:46.685Z,-1.11
2019-01-30T00:52:48.221Z,-1.09
2019-01-30T00:53:48.620Z,-1.04
2019-01-30T00:54:33.585Z,-1
2019-01-30T00:55:34.408Z,-0.96
2019-01-30T00:56:34.814Z,-0.84
2019-01-30T00:57:35.775Z,-0.94
2019-01-30T00:58:35.461Z,-0.93
2019-01-30T00:59:36.423Z,-0.97
2019-01-30T01:00:36.832Z,-0.81
2019-01-30T01:01:37.876Z,-0.81
2019-01-30T01:02:38.837Z,-0.87
2019-01-30T01:03:39.890Z,-0.85
2019-01-30T01:04:40.294Z,-0.82
2019-01-30T01:05:41.103Z,-0.7
2019-01-30T01:06:41.230Z,-0.66
2019-01-30T01:07:41.636Z,-0.67
2019-01-30T01:08:42.044Z,-0.67
2019-01-30T01:09:43.019Z,-0.64
2019-01-30T01:10:43.729Z,-0.69
2019-01-30T01:11:45.153Z,-0.54
2019-01-30T01:12:46.561Z,-0.54
2019-01-30T01:13:47.526Z,-0.48
2019-01-30T01:14:47.651Z,-0.46
2019-01-30T01:15:48.481Z,-0.51
2019-01-30T01:16:49.444Z,-0.49
2019-01-30T01:17:50.140Z,-0.44
2019-01-30T01:18:51.275Z,-0.48
2019-01-30T01:19:52.718Z,-0.49
2019-01-30T01:20:53.140Z,-0.48
2019-01-30T01:21:54.114Z,-0.39
2019-01-30T01:22:54.078Z,-0.36
2019-01-30T01:23:54.770Z,-0.39
2019-01-30T01:24:55.908Z,-0.35
2019-01-30T01:25:56.458Z,-0.38
2019-01-30T01:26:56.866Z,-0.3
2019-01-30T01:27:57.273Z,-0.27
2019-01-30T01:28:58.405Z,-0.21
2019-01-30T01:29:59.094Z,-0.21
2019-01-30T01:30:59.287Z,-0.21
2019-01-30T01:31:59.981Z,-0.24
2019-01-30T01:33:01.388Z,-0.21
2019-01-30T01:34:02.353Z,-0.23
2019-01-30T01:35:03.321Z,-0.24
2019-01-30T01:36:04.144Z,-0.3
2019-01-30T01:37:05.670Z,-0.24
2019-01-30T01:38:05.358Z,-0.24
2019-01-30T01:39:05.822Z,-0.28
2019-01-30T01:40:06.230Z,-0.13
2019-01-30T01:41:06.807Z,-0.27
2019-01-30T01:42:08.213Z,-0.27
2019-01-30T01:43:08.379Z,-0.26
2019-01-30T01:44:09.344Z,-0.27
2019-01-30T01:45:09.752Z,-0.17
2019-01-30T01:46:10.583Z,-0.15
2019-01-30T01:47:11.991Z,-0.13
2019-01-30T01:48:12.398Z,-0.15
2019-01-30T01:49:13.082Z,0.01
2019-01-30T01:50:14.048Z,0.09
2019-01-30T01:51:14.733Z,0.02
2019-01-30T01:52:14.935Z,-0.05
2019-01-30T01:53:15.341Z,-0.09
2019-01-30T01:54:16.307Z,-0.09
2019-01-30T01:55:17.582Z,-0.03
2019-01-30T01:56:18.393Z,-0.06
2019-01-30T01:57:19.109Z,0.08
2019-01-30T01:58:19.522Z,0.16
2019-01-30T01:59:20.208Z,0.16
2019-01-30T02:00:20.894Z,0.18
2019-01-30T02:01:21.306Z,0.23
2019-01-30T02:02:21.724Z,0.2
2019-01-30T02:03:22.132Z,0.19
2019-01-30T02:04:22.820Z,0.19
2019-01-30T02:05:23.885Z,0.19
2019-01-30T02:06:23.696Z,0.26
2019-01-30T02:07:24.938Z,0.26
2019-01-30T02:08:25.347Z,0.27
2019-01-30T02:09:26.315Z,0.3
2019-01-30T02:10:26.726Z,0.36
2019-01-30T02:11:27.697Z,0.29
2019-01-30T02:12:27.945Z,0.3
2019-01-30T02:13:28.364Z,0.29
2019-01-30T02:14:29.494Z,0.39
2019-01-30T02:15:30.627Z,0.33
2019-01-30T02:16:31.497Z,0.47
2019-01-30T02:17:32.185Z,0.48
2019-01-30T02:18:32.322Z,0.61
2019-01-30T02:19:33.564Z,0.61
2019-01-30T02:20:34.384Z,0.66
2019-01-30T02:21:34.794Z,0.68
2019-01-30T02:22:35.482Z,0.71
2019-01-30T02:23:35.615Z,0.78
2019-01-30T02:24:36.030Z,0.82
2019-01-30T02:25:36.749Z,0.74
2019-01-30T02:26:36.675Z,0.84
2019-01-30T02:27:37.366Z,0.78
2019-01-30T02:28:37.777Z,0.77
2019-01-30T02:29:39.465Z,0.78
2019-01-30T02:30:53.898Z,0.85
2019-01-30T02:31:54.682Z,0.92
2019-01-30T02:32:55.533Z,0.95
2019-01-30T02:33:56.084Z,1.02
2019-01-30T02:34:56.726Z,1.13
2019-01-30T02:35:57.134Z,0.96
2019-01-30T02:36:58.116Z,1.03
2019-01-30T02:37:58.825Z,0.95
2019-01-30T02:39:00.073Z,1.07
2019-01-30T02:40:00.762Z,1.09
2019-01-30T02:41:01.579Z,0.99
2019-01-30T02:42:02.519Z,0.96
2019-01-30T02:43:03.761Z,0.94
2019-01-30T02:44:04.177Z,1.06
2019-01-30T02:45:04.437Z,0.96
2019-01-30T02:46:05.410Z,1.12
2019-01-30T02:47:05.844Z,1.12
2019-01-30T02:48:06.332Z,0.96
2019-01-30T02:49:07.297Z,1.03
2019-01-30T02:50:07.269Z,1.03
2019-01-30T02:51:08.013Z,0.99
2019-01-30T02:52:08.410Z,1
2019-01-30T02:53:09.188Z,0.95
2019-01-30T02:54:09.766Z,0.99
2019-01-30T02:55:10.758Z,1.02
2019-01-30T02:56:11.274Z,1.1
2019-01-30T02:57:11.969Z,1.16
2019-01-30T02:58:12.393Z,1.07
2019-01-30T02:59:13.523Z,1.07
2019-01-30T03:00:14.211Z,0.99
2019-01-30T03:01:15.175Z,1.02
2019-01-30T03:02:16.001Z,0.96
2019-01-30T03:03:16.829Z,0.99
2019-01-30T03:04:17.349Z,0.99
2019-01-30T03:05:18.335Z,0.99
2019-01-30T03:06:18.596Z,0.99
2019-01-30T03:07:19.111Z,1.09
2019-01-30T03:08:20.076Z,1.12
2019-01-30T03:09:20.487Z,0.99
2019-01-30T03:10:21.180Z,0.95
2019-01-30T03:11:22.426Z,1.09
2019-01-30T03:12:23.850Z,1.07
2019-01-30T03:13:24.813Z,1.06
2019-01-30T03:14:24.948Z,1.07
2019-01-30T03:15:25.382Z,1.04
2019-01-30T03:16:26.514Z,1.14
2019-01-30T03:17:27.795Z,1.12
2019-01-30T03:18:28.061Z,1.18
2019-01-30T03:19:28.880Z,1.14
2019-01-30T03:20:29.567Z,1.14
2019-01-30T03:21:29.823Z,1.1
2019-01-30T03:22:31.193Z,1.13
2019-01-30T03:23:32.159Z,1.25
2019-01-30T03:24:32.967Z,1.14
2019-01-30T03:25:33.655Z,1.24
2019-01-30T03:26:34.789Z,1.27
2019-01-30T03:27:35.474Z,1.28
2019-01-30T03:28:36.159Z,1.3
2019-01-30T03:29:36.570Z,1.28
2019-01-30T03:30:38.284Z,1.3
2019-01-30T03:31:39.190Z,1.38
2019-01-30T03:32:40.467Z,1.46
2019-01-30T03:33:41.122Z,1.43
2019-01-30T03:34:41.252Z,1.38
2019-01-30T03:35:41.664Z,1.42
2019-01-30T03:36:42.625Z,1.45
2019-01-30T03:37:43.878Z,1.42
2019-01-30T03:38:44.699Z,1.43
2019-01-30T03:39:44.394Z,1.39
2019-01-30T03:40:46.361Z,1.38
2019-01-30T03:41:46.887Z,1.34
2019-01-30T03:42:48.334Z,1.32
2019-01-30T03:43:48.575Z,1.38
2019-01-30T03:44:49.544Z,1.42
2019-01-30T03:45:50.444Z,1.36
2019-01-30T03:46:50.684Z,1.38
2019-01-30T03:47:50.954Z,1.4
2019-01-30T03:48:51.398Z,1.4
2019-01-30T03:49:52.179Z,1.38
2019-01-30T03:50:52.191Z,1.42
2019-01-30T03:51:53.167Z,1.43
2019-01-30T03:52:53.556Z,1.48
2019-01-30T03:53:54.554Z,1.39
2019-01-30T03:54:55.240Z,1.53
2019-01-30T03:55:55.926Z,1.43
2019-01-30T03:56:56.722Z,1.5
2019-01-30T03:57:57.427Z,1.56
2019-01-30T03:58:57.839Z,1.56
2019-01-30T03:59:58.332Z,1.56
2019-01-30T04:00:58.468Z,1.48
2019-01-30T04:01:59.612Z,1.57
2019-01-30T04:03:00.867Z,1.63
2019-01-30T04:04:00.972Z,1.61
2019-01-30T04:05:01.940Z,1.53
2019-01-30T04:06:02.912Z,1.64
2019-01-30T04:07:03.337Z,1.68
2019-01-30T04:08:03.470Z,1.71
2019-01-30T04:09:04.721Z,1.78
2019-01-30T04:10:05.977Z,1.74
2019-01-30T04:11:06.466Z,1.71
2019-01-30T04:12:06.432Z,1.78
2019-01-30T04:13:07.675Z,1.79
2019-01-30T04:14:08.380Z,1.79
2019-01-30T04:15:09.379Z,1.75
2019-01-30T04:16:09.628Z,1.81
2019-01-30T04:17:10.314Z,1.82
2019-01-30T04:18:10.810Z,1.76
2019-01-30T04:19:12.052Z,1.66
2019-01-30T04:20:12.740Z,1.75
2019-01-30T04:21:13.429Z,1.67
2019-01-30T04:22:13.840Z,1.84
2019-01-30T04:23:14.941Z,1.75
2019-01-30T04:24:15.669Z,1.66
2019-01-30T04:25:17.508Z,1.7
2019-01-30T04:26:17.144Z,1.71
2019-01-30T04:27:18.104Z,1.71
2019-01-30T04:28:19.354Z,1.63
2019-01-30T04:29:20.323Z,1.66
2019-01-30T04:30:21.319Z,1.68
2019-01-30T04:31:22.284Z,1.63
2019-01-30T04:32:22.829Z,1.67
2019-01-30T04:33:23.805Z,1.67
2019-01-30T04:34:24.605Z,1.67
2019-01-30T04:35:25.012Z,1.76
2019-01-30T04:36:25.716Z,1.68
2019-01-30T04:37:26.406Z,1.74
2019-01-30T04:38:26.828Z,1.7
2019-01-30T04:39:27.958Z,1.82
2019-01-30T04:40:28.367Z,1.81
2019-01-30T04:41:29.060Z,1.74
2019-01-30T04:42:29.525Z,1.78
2019-01-30T04:43:30.095Z,1.84
2019-01-30T04:44:30.850Z,1.78
2019-01-30T04:45:30.542Z,1.78
2019-01-30T04:46:31.977Z,1.75
2019-01-30T04:47:32.695Z,1.78
2019-01-30T04:48:33.388Z,1.82
2019-01-30T04:49:34.075Z,1.81
2019-01-30T04:50:35.595Z,1.86
2019-01-30T04:51:36.568Z,1.86
2019-01-30T04:52:37.251Z,1.89
2019-01-30T04:53:38.221Z,2
2019-01-30T04:54:38.632Z,1.95
2019-01-30T04:55:39.595Z,1.97
2019-01-30T04:56:40.004Z,1.98
2019-01-30T04:57:41.104Z,1.93
2019-01-30T04:58:41.362Z,1.95
2019-01-30T04:59:42.880Z,1.95
2019-01-30T05:00:44.159Z,1.92
2019-01-30T05:01:51.252Z,2
2019-01-30T05:01:56.587Z,1.95
2019-01-30T05:02:57.100Z,1.95
2019-01-30T05:03:58.521Z,1.98
2019-01-30T05:04:59.210Z,2.05
2019-01-30T05:05:59.841Z,2.1
2019-01-30T05:07:00.810Z,2.08
2019-01-30T05:08:01.862Z,2.12
2019-01-30T05:09:02.406Z,2.15
2019-01-30T05:10:02.928Z,2.12
2019-01-30T05:11:03.209Z,2.21
2019-01-30T05:12:03.355Z,2.15
2019-01-30T05:13:04.751Z,2.15
2019-01-30T05:14:05.172Z,2.14
2019-01-30T05:15:05.888Z,2.14
2019-01-30T05:16:06.576Z,2.21
2019-01-30T05:17:07.623Z,2.25
2019-01-30T05:18:08.597Z,2.22
2019-01-30T05:19:09.892Z,2.25
2019-01-30T05:20:11.094Z,2.25
2019-01-30T05:21:11.503Z,2.12
2019-01-30T05:22:12.750Z,2.14
2019-01-30T05:23:14.286Z,2.22
2019-01-30T05:24:14.998Z,2.22
2019-01-30T05:25:15.469Z,2.25
2019-01-30T05:26:15.899Z,2.22
2019-01-30T05:27:16.309Z,2.28
2019-01-30T05:28:17.301Z,2.12
2019-01-30T05:29:18.083Z,2.16
2019-01-30T05:30:18.047Z,2.18
2019-01-30T05:31:18.895Z,2.18
2019-01-30T05:32:19.558Z,2.12
2019-01-30T05:33:20.943Z,2.08
2019-01-30T05:34:22.065Z,1.98
2019-01-30T05:35:22.753Z,2.1
2019-01-30T05:36:23.440Z,2.12
2019-01-30T05:37:23.856Z,2.08
2019-01-30T05:38:24.269Z,2.19
2019-01-30T05:39:24.518Z,2.15
2019-01-30T05:40:25.119Z,2.1
2019-01-30T05:41:26.375Z,2.14
2019-01-30T05:42:26.789Z,2.15
2019-01-30T05:43:27.926Z,2.14
2019-01-30T05:44:28.899Z,2.12
2019-01-30T05:45:29.862Z,2.14
2019-01-30T05:46:31.271Z,2.18
2019-01-30T05:47:31.683Z,2.15
2019-01-30T05:48:32.708Z,2.15
2019-01-30T05:49:32.951Z,2.22
2019-01-30T05:50:33.641Z,2.16
2019-01-30T05:51:34.142Z,2.08
2019-01-30T05:52:34.958Z,2.15
2019-01-30T05:53:35.050Z,2.22
2019-01-30T05:54:35.464Z,2.19
2019-01-30T05:55:35.987Z,2.26
2019-01-30T05:56:36.117Z,2.25
2019-01-30T05:57:37.088Z,2.25
2019-01-30T05:58:37.326Z,2.32
2019-01-30T05:59:38.330Z,2.37
2019-01-30T06:00:38.572Z,2.4
2019-01-30T06:01:38.821Z,2.37
2019-01-30T06:02:38.793Z,2.44
2019-01-30T06:03:39.245Z,2.4
2019-01-30T06:04:39.932Z,2.39
2019-01-30T06:05:40.899Z,2.43
2019-01-30T06:06:42.309Z,2.47
2019-01-30T06:07:42.721Z,2.52
2019-01-30T06:08:43.683Z,2.51
2019-01-30T06:09:44.648Z,2.61
2019-01-30T06:10:45.338Z,2.58
2019-01-30T06:11:46.025Z,2.64
2019-01-30T06:12:46.832Z,2.58
2019-01-30T06:13:47.260Z,2.59
2019-01-30T06:14:47.240Z,2.57
2019-01-30T06:15:47.934Z,2.54
2019-01-30T06:16:49.053Z,2.59
2019-01-30T06:17:49.739Z,2.54
2019-01-30T06:18:50.498Z,2.57
2019-01-30T06:19:51.190Z,2.61
2019-01-30T06:20:52.268Z,2.52
2019-01-30T06:21:53.238Z,2.61
2019-01-30T06:22:55.205Z,2.47
2019-01-30T06:23:55.180Z,2.61
2019-01-30T06:24:55.428Z,2.59
2019-01-30T06:25:56.123Z,2.52
2019-01-30T06:26:56.923Z,2.57
2019-01-30T06:27:57.894Z,2.57
2019-01-30T06:28:58.703Z,2.57
2019-01-30T06:29:59.694Z,2.54
2019-01-30T06:31:00.300Z,2.55
2019-01-30T06:32:01.083Z,2.59
2019-01-30T06:33:02.334Z,2.52
2019-01-30T06:34:03.431Z,2.61
2019-01-30T06:35:04.121Z,2.59
2019-01-30T06:36:04.811Z,2.55
2019-01-30T06:37:05.503Z,2.52
2019-01-30T06:38:06.190Z,2.55
2019-01-30T06:39:06.603Z,2.54
2019-01-30T06:40:07.571Z,2.57
2019-01-30T06:41:08.535Z,2.54
2019-01-30T06:42:08.964Z,2.52
2019-01-30T06:43:09.161Z,2.62
2019-01-30T06:44:09.987Z,2.57
2019-01-30T06:45:10.781Z,2.57
2019-01-30T06:46:11.921Z,2.68
2019-01-30T06:47:12.626Z,2.59
2019-01-30T06:48:13.642Z,2.69
2019-01-30T06:49:13.772Z,2.72
2019-01-30T06:50:14.906Z,2.65
2019-01-30T06:51:16.319Z,2.68
2019-01-30T06:52:17.076Z,2.69
2019-01-30T06:53:17.490Z,2.68
2019-01-30T06:54:18.589Z,2.69
2019-01-30T06:55:19.005Z,2.65
2019-01-30T06:56:19.697Z,2.72
2019-01-30T06:57:20.743Z,2.72
2019-01-30T06:58:20.430Z,2.64
2019-01-30T06:59:21.473Z,2.7
2019-01-30T07:00:21.270Z,2.75
2019-01-30T07:01:21.954Z,2.75
2019-01-30T07:02:35.110Z,2.76
2019-01-30T07:03:36.208Z,2.85
2019-01-30T07:04:36.634Z,2.87
2019-01-30T07:05:37.048Z,2.88
2019-01-30T07:06:37.777Z,2.88
2019-01-30T07:07:38.193Z,2.85
2019-01-30T07:08:39.117Z,2.9
2019-01-30T07:09:39.714Z,2.94
2019-01-30T07:10:40.125Z,2.87
2019-01-30T07:11:40.915Z,2.87
2019-01-30T07:12:41.096Z,2.9
2019-01-30T07:13:41.935Z,2.79
2019-01-30T07:14:43.106Z,2.91
2019-01-30T07:15:43.918Z,2.95
2019-01-30T07:16:44.854Z,2.9
2019-01-30T07:17:45.015Z,2.93
2019-01-30T07:18:46.078Z,3.05
2019-01-30T07:19:47.878Z,3.05
2019-01-30T07:20:47.846Z,3
2019-01-30T07:21:47.817Z,3.01
2019-01-30T07:22:48.502Z,3.06
2019-01-30T07:23:48.947Z,3.01
2019-01-30T07:24:49.636Z,3.12
2019-01-30T07:25:51.054Z,3.11
2019-01-30T07:26:51.742Z,3.11
2019-01-30T07:27:52.156Z,3.11
2019-01-30T07:28:52.667Z,3.06
2019-01-30T07:29:53.081Z,3.13
2019-01-30T07:30:53.506Z,3.22
2019-01-30T07:31:55.201Z,3.22
2019-01-30T07:32:55.626Z,3.18
2019-01-30T07:33:57.004Z,3.3
2019-01-30T07:34:57.421Z,3.31
2019-01-30T07:35:57.835Z,3.31
2019-01-30T07:36:58.527Z,3.37
2019-01-30T07:38:00.171Z,3.33
2019-01-30T07:39:00.702Z,3.31
2019-01-30T07:40:01.612Z,3.34
2019-01-30T07:41:02.303Z,3.24
2019-01-30T07:42:03.273Z,3.27
2019-01-30T07:43:03.462Z,3.34
2019-01-30T07:44:04.001Z,3.36
2019-01-30T07:45:04.693Z,3.27
2019-01-30T07:46:06.391Z,3.24
2019-01-30T07:47:06.812Z,3.19
2019-01-30T07:48:07.512Z,3.36
2019-01-30T07:49:07.925Z,3.34
2019-01-30T07:50:08.899Z,3.31
2019-01-30T07:51:09.314Z,3.24
2019-01-30T07:52:09.785Z,3.24
2019-01-30T07:53:11.033Z,3.27
2019-01-30T07:54:11.573Z,3.21
2019-01-30T07:55:12.264Z,3.24
2019-01-30T07:56:12.439Z,3.4
2019-01-30T07:57:14.010Z,3.5
2019-01-30T07:58:14.755Z,3.41
2019-01-30T07:59:16.925Z,3.4
2019-01-30T08:00:20.159Z,3.49
2019-01-30T08:01:22.644Z,3.52
2019-01-30T08:02:22.912Z,3.52
2019-01-30T08:03:20.886Z,3.43
2019-01-30T08:04:21.311Z,3.56
2019-01-30T08:05:24.019Z,3.53
2019-01-30T08:06:25.989Z,3.52
2019-01-30T08:07:28.614Z,3.53
2019-01-30T08:08:26.315Z,3.53
2019-01-30T08:09:31.313Z,3.46
2019-01-30T08:09:42.207Z,3.49
2019-01-30T08:09:54.406Z,3.52
2019-01-30T08:10:06.450Z,3.59
2019-01-30T08:10:17.225Z,3.59
2019-01-30T08:11:15.866Z,3.61
2019-01-30T08:12:17.005Z,3.63
2019-01-30T08:13:17.467Z,3.64
2019-01-30T08:14:18.441Z,3.66
2019-01-30T08:15:18.886Z,3.77
2019-01-30T08:16:22.800Z,3.67
2019-01-30T08:17:22.333Z,3.74
2019-01-30T08:18:22.750Z,3.84
2019-01-30T08:19:23.171Z,3.86
2019-01-30T08:20:24.671Z,3.88
2019-01-30T08:21:28.924Z,3.92
2019-01-30T08:22:26.066Z,3.91
2019-01-30T08:23:28.518Z,3.95
2019-01-30T08:24:29.456Z,3.91
2019-01-30T08:25:30.228Z,4
2019-01-30T08:26:33.825Z,4.09
2019-01-30T08:26:44.333Z,4.04
2019-01-30T08:27:44.863Z,4.04
2019-01-30T08:28:45.681Z,4.09
2019-01-30T08:29:47.529Z,4.13
2019-01-30T08:30:48.360Z,4.21
2019-01-30T08:31:49.462Z,4.21
2019-01-30T08:32:50.629Z,4.34
2019-01-30T08:33:07.421Z,4.25
2019-01-30T08:33:14.038Z,4.25
2019-01-30T08:34:14.776Z,4.32
2019-01-30T08:35:14.927Z,4.39
2019-01-30T08:36:15.340Z,4.42
2019-01-30T08:37:16.033Z,4.5
2019-01-30T08:38:16.569Z,4.49
2019-01-30T08:39:16.978Z,4.52
2019-01-30T08:40:17.234Z,4.53
2019-01-30T08:41:18.040Z,4.53
2019-01-30T08:42:19.192Z,4.53
2019-01-30T08:43:19.688Z,4.53
2019-01-30T08:44:19.846Z,4.53
2019-01-30T08:45:20.819Z,4.49
2019-01-30T08:46:21.513Z,4.6
2019-01-30T08:47:22.235Z,4.57
2019-01-30T08:48:22.924Z,4.64
2019-01-30T08:49:23.648Z,4.64
2019-01-30T08:50:23.788Z,4.67
2019-01-30T08:51:23.982Z,4.71
2019-01-30T08:52:24.677Z,4.71
2019-01-30T08:53:25.663Z,4.76
2019-01-30T08:54:26.056Z,4.83
2019-01-30T08:55:27.030Z,4.75
2019-01-30T08:56:27.562Z,4.79
2019-01-30T08:57:32.232Z,4.82
2019-01-30T08:57:43.628Z,4.79
2019-01-30T08:58:40.716Z,4.84
2019-01-30T08:59:41.410Z,4.67
2019-01-30T09:00:42.382Z,4.79
2019-01-30T09:01:43.629Z,4.76
2019-01-30T09:02:43.979Z,4.87
2019-01-30T09:03:44.118Z,4.87
2019-01-30T09:04:44.532Z,4.87
2019-01-30T09:05:44.946Z,4.84
2019-01-30T09:06:46.203Z,4.84
2019-01-30T09:07:46.272Z,4.84
2019-01-30T09:08:46.458Z,4.86
2019-01-30T09:09:47.595Z,4.87
2019-01-30T09:10:48.014Z,4.83
2019-01-30T09:11:48.712Z,4.87
2019-01-30T09:12:49.128Z,4.82
2019-01-30T09:13:49.659Z,4.75
2019-01-30T09:14:50.796Z,4.95
2019-01-30T09:15:51.941Z,4.9
2019-01-30T09:16:53.568Z,4.79
2019-01-30T09:17:53.983Z,4.87
2019-01-30T09:18:55.374Z,4.84
2019-01-30T09:19:55.513Z,4.84
2019-01-30T09:20:56.271Z,4.87
2019-01-30T09:21:56.492Z,4.95
2019-01-30T09:22:57.505Z,4.89
2019-01-30T09:23:57.997Z,4.94
2019-01-30T09:24:58.692Z,4.86
2019-01-30T09:25:59.398Z,4.89
2019-01-30T09:26:59.811Z,4.83
2019-01-30T09:28:00.558Z,4.87
2019-01-30T09:29:00.687Z,4.86
2019-01-30T09:30:01.410Z,4.89
2019-01-30T09:31:02.145Z,4.83
2019-01-30T09:32:03.561Z,4.61
2019-01-30T09:33:05.157Z,4.25
2019-01-30T09:34:05.288Z,3.56
2019-01-30T09:35:06.049Z,3.34
2019-01-30T09:36:06.836Z,2.9
2019-01-30T09:37:07.350Z,2.69
2019-01-30T09:38:07.865Z,2.46
2019-01-30T09:39:08.608Z,2.34
2019-01-30T09:40:09.373Z,2.33
2019-01-30T09:41:09.635Z,2.25
2019-01-30T09:42:10.186Z,2.33
2019-01-30T09:43:11.484Z,2.3
2019-01-30T09:44:12.501Z,2.23
2019-01-30T09:45:13.249Z,2.32
2019-01-30T09:46:14.955Z,2.33
2019-01-30T09:47:15.786Z,2.33
2019-01-30T09:48:16.546Z,2.33
2019-01-30T09:49:17.759Z,2.32
2019-01-30T09:50:18.499Z,2.32
2019-01-30T09:51:19.705Z,2.26
2019-01-30T09:52:31.907Z,2.41
2019-01-30T09:53:32.407Z,2.39
2019-01-30T09:54:32.596Z,2.43
2019-01-30T09:55:33.798Z,2.55
2019-01-30T09:56:34.577Z,2.46
2019-01-30T09:57:35.895Z,2.54
2019-01-30T09:58:36.326Z,2.59
2019-01-30T09:59:38.088Z,2.57
2019-01-30T10:00:37.780Z,2.61
2019-01-30T10:01:38.524Z,2.69
2019-01-30T10:02:39.665Z,2.73
2019-01-30T10:03:40.039Z,2.76
2019-01-30T10:04:41.176Z,2.85
2019-01-30T10:05:41.899Z,2.95
2019-01-30T10:06:43.040Z,3.01
2019-01-30T10:07:44.015Z,3.12
2019-01-30T10:08:44.440Z,3.18
2019-01-30T10:09:46.534Z,3.26
2019-01-30T10:10:50.869Z,3.31
2019-01-30T10:11:01.767Z,3.37
2019-01-30T10:11:14.335Z,3.37
2019-01-30T10:12:11.714Z,3.3
2019-01-30T10:13:11.973Z,3.4
2019-01-30T10:14:13.396Z,3.49
2019-01-30T10:15:14.364Z,3.58
2019-01-30T10:16:14.796Z,3.56
2019-01-30T10:17:15.209Z,3.74
2019-01-30T10:18:15.984Z,3.74
2019-01-30T10:19:16.721Z,3.81
2019-01-30T10:20:17.530Z,3.99
2019-01-30T10:21:17.727Z,4.06
2019-01-30T10:22:22.082Z,4.14
2019-01-30T10:22:32.995Z,4.14
2019-01-30T10:23:33.228Z,4.21
2019-01-30T10:23:45.782Z,4.2
2019-01-30T10:23:58.382Z,4.32
2019-01-30T10:24:07.759Z,4.28
2019-01-30T10:25:08.215Z,4.31
2019-01-30T10:26:08.982Z,4.52
2019-01-30T10:27:13.265Z,4.57
2019-01-30T10:27:23.351Z,4.63
2019-01-30T10:28:24.134Z,4.76
2019-01-30T10:29:24.454Z,4.79
2019-01-30T10:30:25.421Z,4.84
2019-01-30T10:31:25.582Z,5.04
2019-01-30T10:32:27.097Z,5.26
2019-01-30T10:33:27.860Z,5.43
2019-01-30T10:34:28.839Z,5.56
2019-01-30T10:35:29.532Z,5.47
2019-01-30T10:36:30.082Z,5.44
2019-01-30T10:37:31.126Z,5.47
2019-01-30T10:38:31.670Z,5.46
2019-01-30T10:39:32.987Z,5.36
2019-01-30T10:40:33.125Z,5.16
2019-01-30T10:41:33.888Z,5.13
2019-01-30T10:42:34.362Z,4.82
2019-01-30T10:43:35.061Z,4.67
2019-01-30T10:44:36.102Z,4.66
2019-01-30T10:45:40.211Z,4.53
2019-01-30T10:46:39.822Z,4.49
2019-01-30T10:47:40.527Z,4.39
2019-01-30T10:48:41.774Z,4.39
2019-01-30T10:49:42.167Z,4.36
2019-01-30T10:50:42.684Z,4.45
2019-01-30T10:51:44.415Z,4.42
2019-01-30T10:52:44.560Z,4.28
2019-01-30T10:53:44.753Z,4.31
2019-01-30T10:54:46.384Z,4.16
2019-01-30T10:55:48.676Z,4.27
2019-01-30T10:56:52.067Z,4.2
2019-01-30T10:57:02.465Z,4.18
2019-01-30T10:58:00.593Z,4.16
2019-01-30T10:59:01.366Z,4.28
2019-01-30T11:00:03.830Z,4.38
2019-01-30T11:00:17.959Z,4.45
2019-01-30T11:00:29.003Z,4.45
2019-01-30T11:01:27.818Z,4.43
2019-01-30T11:02:33.793Z,4.56
2019-01-30T11:02:41.998Z,4.52
2019-01-30T11:03:42.252Z,4.53
2019-01-30T11:04:43.394Z,4.63
2019-01-30T11:05:45.470Z,4.7
2019-01-30T11:06:46.457Z,4.7
2019-01-30T11:07:46.874Z,4.64
2019-01-30T11:08:46.843Z,4.74
2019-01-30T11:09:48.176Z,4.53
2019-01-30T11:10:51.441Z,4.63
2019-01-30T11:11:52.583Z,4.53
2019-01-30T11:12:04.854Z,4.49
2019-01-30T11:12:16.627Z,4.57
2019-01-30T11:13:18.859Z,4.52
2019-01-30T11:13:29.926Z,4.57
2019-01-30T11:13:42.275Z,4.56
2019-01-30T11:13:53.412Z,4.48
2019-01-30T11:14:06.721Z,4.52
2019-01-30T11:14:16.360Z,4.48
2019-01-30T11:15:16.277Z,4.52
2019-01-30T11:16:16.970Z,4.53
2019-01-30T11:17:17.947Z,4.45
2019-01-30T11:18:20.641Z,4.42
2019-01-30T11:18:34.332Z,4.48
2019-01-30T11:19:34.057Z,4.48
2019-01-30T11:20:34.198Z,4.5
2019-01-30T11:21:34.617Z,4.36
2019-01-30T11:22:35.310Z,4.43
2019-01-30T11:23:35.937Z,4.39
2019-01-30T11:24:36.348Z,4.34
2019-01-30T11:25:37.495Z,4.45
2019-01-30T11:26:38.636Z,4.49
2019-01-30T11:27:39.339Z,4.5
2019-01-30T11:28:40.076Z,4.46
2019-01-30T11:29:41.074Z,4.39
2019-01-30T11:30:42.883Z,4.45
2019-01-30T11:31:42.604Z,4.39
2019-01-30T11:32:46.633Z,4.39
2019-01-30T11:32:57.788Z,4.34
2019-01-30T11:34:10.270Z,4.34
2019-01-30T11:35:11.688Z,4.45
2019-01-30T11:36:12.117Z,4.43
2019-01-30T11:37:12.808Z,4.67
2019-01-30T11:38:13.706Z,4.6
2019-01-30T11:39:14.416Z,4.74
2019-01-30T11:40:14.826Z,4.56
2019-01-30T11:41:15.966Z,4.63
2019-01-30T11:42:16.938Z,4.66
2019-01-30T11:43:17.085Z,4.74
2019-01-30T11:44:22.262Z,4.57
2019-01-30T11:44:30.614Z,4.66
2019-01-30T11:45:30.737Z,4.74
2019-01-30T11:46:30.936Z,4.63
2019-01-30T11:47:31.453Z,4.64
2019-01-30T11:48:32.436Z,4.68
2019-01-30T11:49:35.736Z,4.71
2019-01-30T11:50:36.704Z,4.78
2019-01-30T11:51:37.683Z,4.76
2019-01-30T11:52:38.689Z,4.83
2019-01-30T11:53:39.683Z,4.79
2019-01-30T11:54:40.460Z,4.89
2019-01-30T11:55:40.695Z,4.86
2019-01-30T11:56:41.201Z,4.83
2019-01-30T11:57:41.497Z,4.83
2019-01-30T11:58:42.478Z,4.95
2019-01-30T11:59:43.454Z,4.95
2019-01-30T12:00:44.176Z,5
2019-01-30T12:01:44.594Z,5
2019-01-30T12:02:49.691Z,5.08
2019-01-30T12:03:50.141Z,5.12
2019-01-30T12:04:50.301Z,5.08
2019-01-30T12:05:51.829Z,5.13
2019-01-30T12:06:52.155Z,5.05
2019-01-30T12:07:52.849Z,5.04
2019-01-30T12:08:53.632Z,5.04
2019-01-30T12:09:57.111Z,5.16
2019-01-30T12:10:57.536Z,5.18
2019-01-30T12:11:58.401Z,5.22
2019-01-30T12:12:59.108Z,5.2
2019-01-30T12:13:59.540Z,5.08
2019-01-30T12:15:01.112Z,5.22
2019-01-30T12:15:47.983Z,5.19
2019-01-30T12:16:01.547Z,5.19
2019-01-30T12:16:13.269Z,5.26
2019-01-30T12:16:25.345Z,5.28
2019-01-30T12:16:35.104Z,5.29
2019-01-30T12:17:35.294Z,5.25
2019-01-30T12:18:36.273Z,5.31
2019-01-30T12:19:37.227Z,5.37
2019-01-30T12:20:37.648Z,5.37
2019-01-30T12:21:39.354Z,5.34
2019-01-30T12:22:40.350Z,5.37
2019-01-30T12:23:40.453Z,5.51
2019-01-30T12:24:40.871Z,5.58
2019-01-30T12:25:41.298Z,5.61
2019-01-30T12:26:44.861Z,5.72
2019-01-30T12:26:55.717Z,5.76
2019-01-30T12:27:54.341Z,5.65
2019-01-30T12:28:55.318Z,5.64
2019-01-30T12:29:59.299Z,5.72
2019-01-30T12:31:00.777Z,5.77
2019-01-30T12:31:59.366Z,5.74
2019-01-30T12:32:59.781Z,5.74
2019-01-30T12:34:00.768Z,5.67
2019-01-30T12:35:01.563Z,5.62
2019-01-30T12:36:01.836Z,5.59
2019-01-30T12:37:02.255Z,5.69
2019-01-30T12:38:06.095Z,5.54
2019-01-30T12:39:04.692Z,5.56
2019-01-30T12:40:05.216Z,5.47
2019-01-30T12:41:06.641Z,5.54
2019-01-30T12:42:06.785Z,5.58
2019-01-30T12:43:07.215Z,5.56
2019-01-30T12:44:08.934Z,5.54
2019-01-30T12:45:09.655Z,5.54
2019-01-30T12:46:10.944Z,5.55
2019-01-30T12:47:23.686Z,5.58
2019-01-30T12:48:24.255Z,5.51
2019-01-30T12:49:24.688Z,5.41
2019-01-30T12:50:25.828Z,5.52
2019-01-30T12:51:26.811Z,5.41
2019-01-30T12:52:27.747Z,5.46
2019-01-30T12:53:28.357Z,5.47
2019-01-30T12:54:28.783Z,5.43
2019-01-30T12:55:30.610Z,5.44
2019-01-30T12:56:31.034Z,5.28
2019-01-30T12:57:31.452Z,5.29
2019-01-30T12:58:32.039Z,5.36
2019-01-30T12:59:34.647Z,5.44